createdAt,value
2016-09-28T00:00:40.768Z,0
2016-09-28T00:01:40.585Z,0
2016-09-28T00:02:40.452Z,0
2016-09-28T00:03:40.532Z,0
2016-09-28T00:04:40.865Z,0
2016-09-28T00:05:40.285Z,0
2016-09-28T00:06:40.530Z,0
2016-09-28T00:07:40.591Z,0
2016-09-28T00:08:40.894Z,0
2016-09-28T00:09:40.644Z,0
2016-09-28T00:10:40.088Z,0
2016-09-28T00:11:40.991Z,0
2016-09-28T00:12:40.376Z,0
2016-09-28T00:13:40.074Z,0
2016-09-28T00:14:40.073Z,0
2016-09-28T00:15:41.036Z,0
2016-09-28T00:16:40.738Z,0
2016-09-28T00:17:40.764Z,0
2016-09-28T00:18:41.080Z,0
2016-09-28T00:19:40.492Z,0
2016-09-28T00:20:40.521Z,0
2016-09-28T00:21:40.865Z,0
2016-09-28T00:22:41.293Z,0
2016-09-28T00:23:40.895Z,0
2016-09-28T00:24:40.895Z,0
2016-09-28T00:25:40.705Z,0
2016-09-28T00:26:41.722Z,0
2016-09-28T00:27:40.974Z,0
2016-09-28T00:28:40.974Z,0
2016-09-28T00:29:41.008Z,0
2016-09-28T00:30:40.813Z,0
2016-09-28T00:31:41.045Z,0
2016-09-28T00:32:41.074Z,0
2016-09-28T00:33:41.086Z,0
2016-09-28T00:34:40.485Z,0
2016-09-28T00:35:41.243Z,0
2016-09-28T00:36:40.839Z,0
2016-09-28T00:37:41.200Z,0
2016-09-28T00:38:41.549Z,0
2016-09-28T00:39:41.205Z,0
2016-09-28T00:40:40.624Z,0
2016-09-28T00:41:40.955Z,0
2016-09-28T00:42:40.975Z,0
2016-09-28T00:43:41.404Z,0
2016-09-28T00:44:41.297Z,0
2016-09-28T00:45:41.645Z,0
2016-09-28T00:46:41.424Z,0
2016-09-28T00:47:40.781Z,0
2016-09-28T00:48:41.225Z,0
2016-09-28T00:49:41.424Z,0
2016-09-28T00:50:41.435Z,0
2016-09-28T00:51:41.576Z,0
2016-09-28T00:52:41.495Z,0
2016-09-28T00:53:41.572Z,0
2016-09-28T00:54:41.526Z,0
2016-09-28T00:55:41.863Z,0
2016-09-28T00:56:41.960Z,0
2016-09-28T00:57:41.597Z,0
2016-09-28T00:58:41.296Z,0
2016-09-28T00:59:41.953Z,0
2016-09-28T01:00:41.642Z,0
2016-09-28T01:01:41.779Z,0
2016-09-28T01:02:41.706Z,0
2016-09-28T01:03:41.416Z,0
2016-09-28T01:04:41.737Z,0
2016-09-28T01:05:41.523Z,0
2016-09-28T01:06:41.479Z,0
2016-09-28T01:07:41.500Z,0
2016-09-28T01:08:41.221Z,0
2016-09-28T01:09:42.171Z,0
2016-09-28T01:10:41.856Z,0
2016-09-28T01:11:41.938Z,0
2016-09-28T01:12:42.028Z,0
2016-09-28T01:13:41.616Z,0
2016-09-28T01:14:41.979Z,0
2016-09-28T01:15:41.666Z,0
2016-09-28T01:16:41.779Z,0
2016-09-28T01:17:42.021Z,0
2016-09-28T01:18:41.719Z,0
2016-09-28T01:19:41.447Z,0
2016-09-28T01:20:41.739Z,0
2016-09-28T01:21:42.098Z,0
2016-09-28T01:22:41.807Z,0
2016-09-28T01:23:42.551Z,0
2016-09-28T01:24:41.860Z,0
2016-09-28T01:25:41.859Z,0
2016-09-28T01:26:42.199Z,0
2016-09-28T01:27:42.220Z,0
2016-09-28T01:28:42.220Z,0
2016-09-28T01:29:42.581Z,0
2016-09-28T01:30:42.281Z,0
2016-09-28T01:31:42.320Z,0
2016-09-28T01:32:42.639Z,0
2016-09-28T01:33:42.441Z,0
2016-09-28T01:34:42.432Z,0
2016-09-28T01:35:42.091Z,0
2016-09-28T01:36:42.500Z,0
2016-09-28T01:37:42.858Z,0
2016-09-28T01:38:42.470Z,0
2016-09-28T01:39:42.468Z,0
2016-09-28T01:40:42.584Z,0
2016-09-28T01:41:42.252Z,0
2016-09-28T01:42:41.930Z,0
2016-09-28T01:43:42.260Z,0
2016-09-28T01:44:42.684Z,0
2016-09-28T01:45:42.909Z,0
2016-09-28T01:46:42.402Z,0
2016-09-28T01:47:42.047Z,0
2016-09-28T01:48:43.075Z,0
2016-09-28T01:49:42.698Z,0
2016-09-28T01:50:42.721Z,0
2016-09-28T01:51:42.808Z,0
2016-09-28T01:52:43.069Z,0
2016-09-28T01:53:42.507Z,0
2016-09-28T01:54:42.220Z,0
2016-09-28T01:55:42.826Z,0
2016-09-28T01:56:42.566Z,0
2016-09-28T01:57:42.877Z,0
2016-09-28T01:58:42.696Z,0
2016-09-28T01:59:43.030Z,0
2016-09-28T02:00:42.694Z,0
2016-09-28T02:01:43.036Z,0
2016-09-28T02:02:42.998Z,0
2016-09-28T02:03:43.152Z,0
2016-09-28T02:04:43.036Z,0
2016-09-28T02:05:42.758Z,0
2016-09-28T02:06:42.756Z,0
2016-09-28T02:07:43.417Z,0
2016-09-28T02:08:42.826Z,0
2016-09-28T02:09:43.431Z,0
2016-09-28T02:10:43.176Z,0
2016-09-28T02:11:43.008Z,0
2016-09-28T02:12:43.010Z,0
2016-09-28T02:13:43.221Z,0
2016-09-28T02:14:43.259Z,0
2016-09-28T02:15:43.593Z,0
2016-09-28T02:16:43.357Z,0
2016-09-28T02:17:43.082Z,0
2016-09-28T02:18:43.112Z,0
2016-09-28T02:19:43.137Z,0
2016-09-28T02:20:43.689Z,0
2016-09-28T02:21:43.414Z,0
2016-09-28T02:22:43.426Z,0
2016-09-28T02:23:43.457Z,0
2016-09-28T02:24:43.464Z,0
2016-09-28T02:25:43.899Z,0
2016-09-28T02:26:43.348Z,0
2016-09-28T02:27:43.226Z,0
2016-09-28T02:28:43.257Z,0
2016-09-28T02:29:43.888Z,0
2016-09-28T02:30:43.608Z,0
2016-09-28T02:31:43.751Z,0
2016-09-28T02:32:43.636Z,0
2016-09-28T02:33:43.695Z,0
2016-09-28T02:34:43.699Z,0
2016-09-28T02:35:43.506Z,0
2016-09-28T02:36:43.785Z,0
2016-09-28T02:37:44.159Z,0
2016-09-28T02:38:44.092Z,0
2016-09-28T02:39:43.801Z,0
2016-09-28T02:40:43.812Z,0
2016-09-28T02:41:43.912Z,0
2016-09-28T02:42:43.874Z,0
2016-09-28T02:43:43.946Z,0
2016-09-28T02:44:43.612Z,0
2016-09-28T02:45:44.234Z,0
2016-09-28T02:46:44.377Z,0
2016-09-28T02:47:43.667Z,0
2016-09-28T02:48:43.759Z,0
2016-09-28T02:49:44.083Z,0
2016-09-28T02:50:44.462Z,0
2016-09-28T02:51:44.128Z,0
2016-09-28T02:52:43.780Z,0
2016-09-28T02:53:44.248Z,0
2016-09-28T02:54:44.145Z,0
2016-09-28T02:55:44.279Z,0
2016-09-28T02:56:44.290Z,0
2016-09-28T02:57:44.508Z,0
2016-09-28T02:58:43.918Z,0
2016-09-28T02:59:44.232Z,0
2016-09-28T03:00:44.642Z,0
2016-09-28T03:01:44.496Z,0
2016-09-28T03:02:43.895Z,0
2016-09-28T03:03:44.580Z,0
2016-09-28T03:04:44.160Z,0
2016-09-28T03:05:44.657Z,0
2016-09-28T03:06:45.086Z,0
2016-09-28T03:07:44.629Z,0
2016-09-28T03:08:44.648Z,0
2016-09-28T03:09:45.038Z,0
2016-09-28T03:10:44.290Z,0
2016-09-28T03:11:44.248Z,0
2016-09-28T03:12:44.032Z,0
2016-09-28T03:13:43.977Z,0
2016-09-28T03:14:44.589Z,0
2016-09-28T03:15:43.989Z,0
2016-09-28T03:16:45.157Z,0
2016-09-28T03:17:44.429Z,0
2016-09-28T03:18:44.679Z,0
2016-09-28T03:19:44.709Z,0
2016-09-28T03:20:44.830Z,0
2016-09-28T03:21:44.759Z,0
2016-09-28T03:22:44.889Z,0
2016-09-28T03:23:45.130Z,0
2016-09-28T03:24:45.116Z,0
2016-09-28T03:25:44.860Z,0
2016-09-28T03:26:44.903Z,0
2016-09-28T03:27:45.179Z,0
2016-09-28T03:28:44.636Z,0
2016-09-28T03:29:45.231Z,0
2016-09-28T03:30:45.264Z,0
2016-09-28T03:31:44.718Z,0
2016-09-28T03:32:45.200Z,0
2016-09-28T03:33:45.157Z,0
2016-09-28T03:34:44.704Z,0
2016-09-28T03:35:44.422Z,0
2016-09-28T03:36:45.391Z,0
2016-09-28T03:37:45.487Z,0
2016-09-28T03:38:45.271Z,0
2016-09-28T03:39:44.819Z,0
2016-09-28T03:40:44.871Z,0
2016-09-28T03:41:45.270Z,0
2016-09-28T03:42:45.252Z,0
2016-09-28T03:43:45.224Z,0
2016-09-28T03:44:45.539Z,0
2016-09-28T03:45:45.299Z,0
2016-09-28T03:46:45.654Z,0
2016-09-28T03:47:45.271Z,0
2016-09-28T03:48:45.424Z,0
2016-09-28T03:49:45.297Z,0
2016-09-28T03:50:45.370Z,0
2016-09-28T03:51:45.742Z,0
2016-09-28T03:52:45.489Z,0
2016-09-28T03:53:45.767Z,0
2016-09-28T03:54:45.786Z,0
2016-09-28T03:55:45.473Z,0
2016-09-28T03:56:45.510Z,0
2016-09-28T03:57:45.310Z,0
2016-09-28T03:58:45.290Z,0
2016-09-28T03:59:45.588Z,0
2016-09-28T04:00:45.966Z,0
2016-09-28T04:01:45.661Z,0
2016-09-28T04:02:45.674Z,0
2016-09-28T04:03:45.360Z,0
2016-09-28T04:04:45.712Z,0
2016-09-28T04:05:46.008Z,0
2016-09-28T04:06:46.042Z,0
2016-09-28T04:07:45.740Z,0
2016-09-28T04:08:45.459Z,0
2016-09-28T04:09:45.605Z,0
2016-09-28T04:10:46.169Z,0
2016-09-28T04:11:45.918Z,0
2016-09-28T04:12:45.542Z,0
2016-09-28T04:13:45.900Z,0
2016-09-28T04:14:45.899Z,0
2016-09-28T04:15:45.617Z,0
2016-09-28T04:16:46.251Z,0
2016-09-28T04:17:45.974Z,0
2016-09-28T04:18:45.991Z,0
2016-09-28T04:19:45.710Z,0
2016-09-28T04:20:45.728Z,0
2016-09-28T04:21:46.396Z,0
2016-09-28T04:22:46.478Z,0
2016-09-28T04:23:46.098Z,0
2016-09-28T04:24:46.141Z,0
2016-09-28T04:25:46.142Z,0
2016-09-28T04:26:45.921Z,0
2016-09-28T04:27:46.362Z,0
2016-09-28T04:28:46.519Z,0
2016-09-28T04:29:45.923Z,0
2016-09-28T04:30:45.954Z,0
2016-09-28T04:31:46.574Z,0
2016-09-28T04:32:46.318Z,0
2016-09-28T04:33:46.424Z,0
2016-09-28T04:34:46.673Z,0
2016-09-28T04:35:46.080Z,0
2016-09-28T04:36:46.392Z,0
2016-09-28T04:37:46.430Z,0
2016-09-28T04:38:46.746Z,0
2016-09-28T04:39:46.147Z,0
2016-09-28T04:40:46.480Z,0
2016-09-28T04:41:46.231Z,0
2016-09-28T04:42:46.730Z,0
2016-09-28T04:43:46.584Z,0
2016-09-28T04:44:46.554Z,0
2016-09-28T04:45:46.931Z,0
2016-09-28T04:46:46.685Z,0
2016-09-28T04:47:46.348Z,0
2016-09-28T04:48:46.049Z,0
2016-09-28T04:49:46.689Z,0
2016-09-28T04:50:47.043Z,0
2016-09-28T04:51:46.792Z,0
2016-09-28T04:52:46.756Z,0
2016-09-28T04:53:46.830Z,0
2016-09-28T04:54:47.122Z,0
2016-09-28T04:55:46.509Z,0
2016-09-28T04:56:46.519Z,0
2016-09-28T04:57:47.251Z,0
2016-09-28T04:58:47.277Z,0
2016-09-28T04:59:46.943Z,0
2016-09-28T05:00:46.647Z,0
2016-09-28T05:01:47.007Z,0
2016-09-28T05:02:47.292Z,0
2016-09-28T05:03:46.391Z,0
2016-09-28T05:04:47.042Z,0
2016-09-28T05:05:47.367Z,0
2016-09-28T05:06:47.137Z,0
2016-09-28T05:07:47.460Z,0
2016-09-28T05:08:47.248Z,0
2016-09-28T05:09:47.492Z,0
2016-09-28T05:10:47.173Z,0
2016-09-28T05:11:47.586Z,0
2016-09-28T05:12:47.531Z,0
2016-09-28T05:13:47.581Z,0
2016-09-28T05:14:47.271Z,0
2016-09-28T05:15:47.591Z,0
2016-09-28T05:16:47.410Z,0
2016-09-28T05:17:47.642Z,0
2016-09-28T05:18:47.045Z,0
2016-09-28T05:19:47.820Z,0
2016-09-28T05:20:47.683Z,0
2016-09-28T05:21:47.203Z,0
2016-09-28T05:22:47.802Z,0
2016-09-28T05:23:47.880Z,0
2016-09-28T05:24:47.784Z,5
2016-09-28T05:25:47.201Z,5
2016-09-28T05:26:47.834Z,5
2016-09-28T05:27:47.547Z,5
2016-09-28T05:28:47.907Z,5
2016-09-28T05:29:47.599Z,5
2016-09-28T05:30:47.918Z,5
2016-09-28T05:31:47.349Z,5
2016-09-28T05:32:48.255Z,10
2016-09-28T05:33:48.004Z,10
2016-09-28T05:34:47.496Z,15
2016-09-28T05:35:48.199Z,15
2016-09-28T05:36:47.128Z,15
2016-09-28T05:37:47.773Z,15
2016-09-28T05:38:47.914Z,15
2016-09-28T05:39:48.320Z,15
2016-09-28T05:40:48.257Z,15
2016-09-28T05:41:47.930Z,15
2016-09-28T05:42:48.312Z,15
2016-09-28T05:43:48.000Z,15
2016-09-28T05:44:47.946Z,15
2016-09-28T05:45:48.309Z,15
2016-09-28T05:46:48.409Z,20
2016-09-28T05:47:48.411Z,25
2016-09-28T05:48:48.448Z,25
2016-09-28T05:49:48.060Z,25
2016-09-28T05:50:48.486Z,25
2016-09-28T05:51:48.095Z,30
2016-09-28T05:52:48.370Z,35
2016-09-28T05:53:48.422Z,35
2016-09-28T05:54:48.317Z,35
2016-09-28T05:55:47.869Z,40
2016-09-28T05:56:48.259Z,40
2016-09-28T05:57:48.381Z,45
2016-09-28T05:58:47.631Z,45
2016-09-28T05:59:48.576Z,50
2016-09-28T06:00:47.665Z,55
2016-09-28T06:01:48.015Z,60
2016-09-28T06:02:48.328Z,70
2016-09-28T06:03:48.658Z,115
2016-09-28T06:04:48.419Z,190
2016-09-28T06:05:48.549Z,190
2016-09-28T06:06:48.110Z,110
2016-09-28T06:07:48.179Z,90
2016-09-28T06:08:48.841Z,100
2016-09-28T06:09:48.637Z,110
2016-09-28T06:10:47.899Z,125
2016-09-28T06:11:48.859Z,105
2016-09-28T06:12:48.562Z,95
2016-09-28T06:13:48.591Z,75
2016-09-28T06:14:48.920Z,65
2016-09-28T06:15:48.496Z,70
2016-09-28T06:16:48.709Z,75
2016-09-28T06:17:48.471Z,105
2016-09-28T06:18:48.605Z,125
2016-09-28T06:19:49.077Z,115
2016-09-28T06:20:48.580Z,150
2016-09-28T06:21:49.153Z,145
2016-09-28T06:22:48.800Z,130
2016-09-28T06:23:48.885Z,135
2016-09-28T06:24:49.176Z,155
2016-09-28T06:25:49.178Z,140
2016-09-28T06:26:48.973Z,135
2016-09-28T06:27:48.962Z,100
2016-09-28T06:28:48.969Z,105
2016-09-28T06:29:48.980Z,120
2016-09-28T06:30:48.761Z,130
2016-09-28T06:31:49.007Z,190
2016-09-28T06:32:49.058Z,135
2016-09-28T06:33:48.743Z,210
2016-09-28T06:34:49.139Z,285
2016-09-28T06:35:48.488Z,225
2016-09-28T06:36:49.119Z,475
2016-09-28T06:37:49.257Z,425
2016-09-28T06:38:49.251Z,225
2016-09-28T06:39:48.893Z,515
2016-09-28T06:40:49.210Z,460
2016-09-28T06:41:49.355Z,445
2016-09-28T06:42:48.740Z,315
2016-09-28T06:43:49.310Z,405
2016-09-28T06:44:49.410Z,435
2016-09-28T06:45:49.652Z,270
2016-09-28T06:46:49.670Z,325
2016-09-28T06:47:49.062Z,300
2016-09-28T06:48:49.719Z,385
2016-09-28T06:49:49.436Z,310
2016-09-28T06:50:49.451Z,265
2016-09-28T06:51:49.629Z,195
2016-09-28T06:52:49.620Z,165
2016-09-28T06:53:49.552Z,120
2016-09-28T06:54:49.269Z,120
2016-09-28T06:55:49.305Z,115
2016-09-28T06:56:49.710Z,160
2016-09-28T06:57:49.653Z,165
2016-09-28T06:58:49.050Z,165
2016-09-28T06:59:49.983Z,120
2016-09-28T07:00:50.059Z,115
2016-09-28T07:01:49.730Z,135
2016-09-28T07:02:49.751Z,150
2016-09-28T07:03:49.783Z,170
2016-09-28T07:04:49.829Z,170
2016-09-28T07:05:49.832Z,160
2016-09-28T07:06:50.001Z,135
2016-09-28T07:07:49.271Z,135
2016-09-28T07:08:50.220Z,155
2016-09-28T07:09:49.928Z,145
2016-09-28T07:10:49.961Z,200
2016-09-28T07:11:49.359Z,235
2016-09-28T07:12:50.037Z,160
2016-09-28T07:13:49.730Z,190
2016-09-28T07:14:49.729Z,280
2016-09-28T07:15:49.750Z,195
2016-09-28T07:16:50.463Z,175
2016-09-28T07:17:50.175Z,155
2016-09-28T07:18:50.448Z,170
2016-09-28T07:19:50.482Z,170
2016-09-28T07:20:50.191Z,150
2016-09-28T07:21:50.531Z,160
2016-09-28T07:22:49.934Z,155
2016-09-28T07:23:50.368Z,195
2016-09-28T07:24:50.380Z,190
2016-09-28T07:25:50.629Z,170
2016-09-28T07:26:50.782Z,175
2016-09-28T07:27:50.679Z,240
2016-09-28T07:28:50.390Z,235
2016-09-28T07:29:50.130Z,270
2016-09-28T07:30:50.441Z,230
2016-09-28T07:31:50.247Z,180
2016-09-28T07:32:50.504Z,180
2016-09-28T07:33:50.525Z,205
2016-09-28T07:34:50.859Z,250
2016-09-28T07:35:50.610Z,205
2016-09-28T07:36:50.921Z,200
2016-09-28T07:37:50.315Z,190
2016-09-28T07:38:50.937Z,235
2016-09-28T07:39:50.670Z,260
2016-09-28T07:40:50.699Z,230
2016-09-28T07:41:50.709Z,205
2016-09-28T07:42:50.761Z,255
2016-09-28T07:43:50.450Z,305
2016-09-28T07:44:50.861Z,305
2016-09-28T07:45:50.824Z,220
2016-09-28T07:46:51.563Z,205
2016-09-28T07:47:50.878Z,210
2016-09-28T07:48:51.528Z,260
2016-09-28T07:49:50.730Z,270
2016-09-28T07:50:51.555Z,305
2016-09-28T07:51:50.650Z,300
2016-09-28T07:52:50.692Z,285
2016-09-28T07:53:51.427Z,350
2016-09-28T07:54:51.221Z,305
2016-09-28T07:55:51.379Z,270
2016-09-28T07:56:51.511Z,240
2016-09-28T07:57:50.523Z,230
2016-09-28T07:58:51.165Z,205
2016-09-28T07:59:50.871Z,210
2016-09-28T08:00:51.496Z,210
2016-09-28T08:01:51.343Z,205
2016-09-28T08:02:51.424Z,205
2016-09-28T08:03:51.249Z,195
2016-09-28T08:04:51.442Z,185
2016-09-28T08:05:51.300Z,195
2016-09-28T08:06:51.644Z,185
2016-09-28T08:07:51.053Z,205
2016-09-28T08:08:51.443Z,235
2016-09-28T08:09:51.089Z,255
2016-09-28T08:10:51.431Z,235
2016-09-28T08:11:51.317Z,245
2016-09-28T08:12:51.567Z,255
2016-09-28T08:13:51.652Z,275
2016-09-28T08:14:51.940Z,290
2016-09-28T08:15:51.674Z,265
2016-09-28T08:16:51.882Z,230
2016-09-28T08:17:51.588Z,240
2016-09-28T08:18:51.629Z,240
2016-09-28T08:19:51.358Z,285
2016-09-28T08:20:51.527Z,300
2016-09-28T08:21:51.097Z,315
2016-09-28T08:22:51.734Z,285
2016-09-28T08:23:52.159Z,305
2016-09-28T08:24:52.106Z,285
2016-09-28T08:25:51.531Z,335
2016-09-28T08:26:51.528Z,330
2016-09-28T08:27:51.551Z,285
2016-09-28T08:28:52.203Z,280
2016-09-28T08:29:51.912Z,290
2016-09-28T08:30:52.061Z,250
2016-09-28T08:31:51.829Z,220
2016-09-28T08:32:51.984Z,250
2016-09-28T08:33:51.689Z,260
2016-09-28T08:34:52.053Z,255
2016-09-28T08:35:52.450Z,260
2016-09-28T08:36:51.785Z,275
2016-09-28T08:37:52.431Z,280
2016-09-28T08:38:51.509Z,265
2016-09-28T08:39:52.140Z,270
2016-09-28T08:40:51.890Z,285
2016-09-28T08:41:52.219Z,265
2016-09-28T08:42:52.238Z,275
2016-09-28T08:43:52.375Z,275
2016-09-28T08:44:51.973Z,285
2016-09-28T08:45:52.401Z,295
2016-09-28T08:46:52.036Z,275
2016-09-28T08:47:52.362Z,290
2016-09-28T08:48:52.358Z,305
2016-09-28T08:49:52.710Z,285
2016-09-28T08:50:52.723Z,320
2016-09-28T08:51:52.132Z,325
2016-09-28T08:52:52.802Z,275
2016-09-28T08:53:52.824Z,265
2016-09-28T08:54:52.963Z,285
2016-09-28T08:55:52.614Z,295
2016-09-28T08:56:53.013Z,285
2016-09-28T08:57:52.299Z,325
2016-09-28T08:58:52.320Z,310
2016-09-28T08:59:52.660Z,310
2016-09-28T09:00:52.992Z,295
2016-09-28T09:01:52.775Z,350
2016-09-28T09:02:52.420Z,370
2016-09-28T09:03:52.782Z,390
2016-09-28T09:04:53.088Z,345
2016-09-28T09:05:52.169Z,335
2016-09-28T09:06:52.922Z,295
2016-09-28T09:07:52.545Z,315
2016-09-28T09:08:53.216Z,325
2016-09-28T09:09:52.975Z,340
2016-09-28T09:10:53.359Z,350
2016-09-28T09:11:52.963Z,315
2016-09-28T09:12:52.984Z,300
2016-09-28T09:13:53.322Z,310
2016-09-28T09:14:53.345Z,310
2016-09-28T09:15:53.376Z,300
2016-09-28T09:16:53.111Z,295
2016-09-28T09:17:53.514Z,275
2016-09-28T09:18:54.013Z,270
2016-09-28T09:19:53.478Z,275
2016-09-28T09:20:53.167Z,280
2016-09-28T09:21:52.911Z,285
2016-09-28T09:22:53.578Z,255
2016-09-28T09:23:53.284Z,265
2016-09-28T09:24:53.343Z,265
2016-09-28T09:25:53.623Z,260
2016-09-28T09:26:53.649Z,275
2016-09-28T09:27:53.074Z,260
2016-09-28T09:28:53.732Z,260
2016-09-28T09:29:53.503Z,255
2016-09-28T09:30:53.458Z,265
2016-09-28T09:31:52.845Z,265
2016-09-28T09:32:53.831Z,275
2016-09-28T09:33:53.209Z,285
2016-09-28T09:34:53.543Z,280
2016-09-28T09:35:53.252Z,285
2016-09-28T09:36:54.005Z,285
2016-09-28T09:37:53.929Z,295
2016-09-28T09:38:53.777Z,290
2016-09-28T09:39:53.728Z,295
2016-09-28T09:40:54.182Z,300
2016-09-28T09:41:53.532Z,305
2016-09-28T09:42:54.085Z,310
2016-09-28T09:43:52.858Z,315
2016-09-28T09:44:53.798Z,340
2016-09-28T09:46:25.525Z,405
2016-09-28T09:46:54.296Z,425
2016-09-28T09:47:54.003Z,445
2016-09-28T09:48:54.434Z,435
2016-09-28T09:49:54.403Z,410
2016-09-28T09:50:54.136Z,385
2016-09-28T09:51:53.572Z,375
2016-09-28T09:52:54.069Z,360
2016-09-28T09:53:54.084Z,320
2016-09-28T09:54:54.435Z,290
2016-09-28T09:55:54.413Z,275
2016-09-28T09:56:54.169Z,265
2016-09-28T09:57:53.840Z,260
2016-09-28T09:58:54.451Z,260
2016-09-28T09:59:54.621Z,250
2016-09-28T10:00:54.532Z,250
2016-09-28T10:01:54.641Z,255
2016-09-28T10:03:25.960Z,270
2016-09-28T10:03:54.373Z,275
2016-09-28T10:04:54.611Z,290
2016-09-28T10:05:53.823Z,305
2016-09-28T10:06:54.692Z,305
2016-09-28T10:07:54.423Z,295
2016-09-28T10:08:54.443Z,300
2016-09-28T10:09:54.475Z,305
2016-09-28T10:10:53.853Z,320
2016-09-28T10:11:54.924Z,340
2016-09-28T10:12:54.230Z,355
2016-09-28T10:13:54.684Z,355
2016-09-28T10:14:54.363Z,350
2016-09-28T10:15:54.314Z,370
2016-09-28T10:16:54.996Z,405
2016-09-28T10:17:54.983Z,420
2016-09-28T10:18:54.398Z,430
2016-09-28T10:19:54.403Z,435
2016-09-28T10:20:54.484Z,450
2016-09-28T10:21:54.864Z,460
2016-09-28T10:22:54.175Z,460
2016-09-28T10:23:54.895Z,460
2016-09-28T10:24:55.253Z,450
2016-09-28T10:25:55.263Z,435
2016-09-28T10:26:54.901Z,430
2016-09-28T10:27:55.275Z,420
2016-09-28T10:28:55.060Z,405
2016-09-28T10:29:55.293Z,405
2016-09-28T10:30:55.330Z,430
2016-09-28T10:31:55.360Z,460
2016-09-28T10:32:55.155Z,465
2016-09-28T10:33:54.845Z,475
2016-09-28T10:34:54.840Z,495
2016-09-28T10:35:55.163Z,505
2016-09-28T10:36:54.617Z,515
2016-09-28T10:37:54.931Z,525
2016-09-28T10:38:55.231Z,535
2016-09-28T10:39:55.575Z,530
2016-09-28T10:40:55.063Z,505
2016-09-28T10:41:55.371Z,495
2016-09-28T10:42:55.367Z,485
2016-09-28T10:43:55.518Z,480
2016-09-28T10:44:55.191Z,465
2016-09-28T10:45:55.174Z,440
2016-09-28T10:46:55.482Z,435
2016-09-28T10:47:55.183Z,430
2016-09-28T10:48:54.915Z,430
2016-09-28T10:49:55.561Z,435
2016-09-28T10:50:55.894Z,435
2016-09-28T10:51:55.604Z,440
2016-09-28T10:52:55.742Z,465
2016-09-28T10:53:55.781Z,495
2016-09-28T10:54:55.783Z,515
2016-09-28T10:55:55.803Z,500
2016-09-28T10:56:56.089Z,465
2016-09-28T10:57:55.462Z,445
2016-09-28T10:58:55.807Z,425
2016-09-28T10:59:55.863Z,405
2016-09-28T11:00:55.863Z,420
2016-09-28T11:01:56.238Z,430
2016-09-28T11:02:56.227Z,440
2016-09-28T11:03:56.265Z,445
2016-09-28T11:04:55.993Z,450
2016-09-28T11:05:55.374Z,475
2016-09-28T11:06:56.403Z,485
2016-09-28T11:07:55.747Z,490
2016-09-28T11:08:56.091Z,500
2016-09-28T11:09:55.502Z,510
2016-09-28T11:10:56.153Z,530
2016-09-28T11:11:55.876Z,515
2016-09-28T11:12:55.875Z,485
2016-09-28T11:13:55.924Z,455
2016-09-28T11:14:56.577Z,445
2016-09-28T11:15:56.649Z,450
2016-09-28T11:16:56.738Z,455
2016-09-28T11:17:56.039Z,455
2016-09-28T11:18:56.681Z,455
2016-09-28T11:19:56.726Z,450
2016-09-28T11:20:56.455Z,440
2016-09-28T11:21:56.513Z,435
2016-09-28T11:22:56.521Z,445
2016-09-28T11:23:56.506Z,440
2016-09-28T11:24:56.641Z,440
2016-09-28T11:25:56.265Z,460
2016-09-28T11:26:56.342Z,495
2016-09-28T11:27:56.922Z,515
2016-09-28T11:28:57.046Z,515
2016-09-28T11:29:56.428Z,475
2016-09-28T11:30:56.494Z,475
2016-09-28T11:31:56.852Z,475
2016-09-28T11:32:56.773Z,475
2016-09-28T11:33:56.822Z,480
2016-09-28T11:34:56.844Z,475
2016-09-28T11:35:56.758Z,455
2016-09-28T11:36:56.474Z,460
2016-09-28T11:37:57.568Z,470
2016-09-28T11:38:57.553Z,465
2016-09-28T11:39:57.141Z,450
2016-09-28T11:40:57.635Z,410
2016-09-28T11:41:56.878Z,390
2016-09-28T11:42:57.110Z,385
2016-09-28T11:43:57.575Z,400
2016-09-28T11:44:57.214Z,425
2016-09-28T11:45:57.593Z,435
2016-09-28T11:46:57.241Z,440
2016-09-28T11:47:56.920Z,455
2016-09-28T11:48:57.642Z,460
2016-09-28T11:49:56.972Z,455
2016-09-28T11:50:57.296Z,445
2016-09-28T11:51:57.133Z,445
2016-09-28T11:52:57.121Z,445
2016-09-28T11:53:57.381Z,445
2016-09-28T11:54:57.443Z,440
2016-09-28T11:55:57.743Z,430
2016-09-28T11:56:57.642Z,415
2016-09-28T11:57:57.727Z,405
2016-09-28T11:58:58.035Z,405
2016-09-28T11:59:57.235Z,390
2016-09-28T12:00:57.924Z,380
2016-09-28T12:01:57.715Z,380
2016-09-28T12:02:57.686Z,390
2016-09-28T12:03:57.960Z,400
2016-09-28T12:04:58.149Z,410
2016-09-28T12:05:57.142Z,415
2016-09-28T12:06:57.778Z,420
2016-09-28T12:07:58.074Z,430
2016-09-28T12:08:58.120Z,445
2016-09-28T12:09:57.765Z,470
2016-09-28T12:10:57.873Z,475
2016-09-28T12:11:57.763Z,455
2016-09-28T12:12:57.924Z,445
2016-09-28T12:13:58.291Z,445
2016-09-28T12:14:58.406Z,455
2016-09-28T12:15:58.436Z,450
2016-09-28T12:16:57.416Z,445
2016-09-28T12:17:57.850Z,440
2016-09-28T12:18:58.403Z,430
2016-09-28T12:19:58.137Z,435
2016-09-28T12:20:58.472Z,440
2016-09-28T12:21:58.185Z,440
2016-09-28T12:22:58.511Z,450
2016-09-28T12:23:58.365Z,450
2016-09-28T12:24:58.633Z,450
2016-09-28T12:25:58.406Z,450
2016-09-28T12:26:58.715Z,450
2016-09-28T12:27:58.084Z,455
2016-09-28T12:28:58.405Z,450
2016-09-28T12:29:58.474Z,455
2016-09-28T12:30:58.432Z,460
2016-09-28T12:31:58.447Z,450
2016-09-28T12:32:58.811Z,445
2016-09-28T12:33:58.830Z,445
2016-09-28T12:34:58.574Z,445
2016-09-28T12:35:58.900Z,455
2016-09-28T12:36:58.287Z,455
2016-09-28T12:37:58.646Z,460
2016-09-28T12:38:58.669Z,475
2016-09-28T12:39:58.690Z,475
2016-09-28T12:40:58.732Z,485
2016-09-28T12:41:59.084Z,470
2016-09-28T12:42:59.088Z,475
2016-09-28T12:43:58.886Z,470
2016-09-28T12:44:59.170Z,455
2016-09-28T12:45:58.258Z,440
2016-09-28T12:46:59.376Z,435
2016-09-28T12:47:58.951Z,430
2016-09-28T12:48:58.950Z,435
2016-09-28T12:49:58.968Z,430
2016-09-28T12:50:59.072Z,425
2016-09-28T12:51:59.055Z,420
2016-09-28T12:52:59.387Z,425
2016-09-28T12:53:59.144Z,420
2016-09-28T12:54:59.143Z,420
2016-09-28T12:55:58.882Z,410
2016-09-28T12:56:59.201Z,410
2016-09-28T12:57:59.525Z,415
2016-09-28T12:58:59.264Z,415
2016-09-28T12:59:59.693Z,435
2016-09-28T13:00:58.992Z,430
2016-09-28T13:01:59.030Z,420
2016-09-28T13:02:59.363Z,420
2016-09-28T13:03:59.073Z,435
2016-09-28T13:04:59.446Z,430
2016-09-28T13:05:59.135Z,415
2016-09-28T13:06:59.804Z,415
2016-09-28T13:07:59.042Z,395
2016-09-28T13:08:59.916Z,390
2016-09-28T13:09:59.381Z,390
2016-09-28T13:10:59.615Z,390
2016-09-28T13:11:59.624Z,390
2016-09-28T13:12:59.629Z,410
2016-09-28T13:13:59.782Z,425
2016-09-28T13:15:00.024Z,435
2016-09-28T13:15:59.731Z,440
2016-09-28T13:17:00.068Z,435
2016-09-28T13:18:00.194Z,435
2016-09-28T13:19:00.165Z,410
2016-09-28T13:19:59.586Z,405
2016-09-28T13:21:00.213Z,400
2016-09-28T13:21:59.898Z,395
2016-09-28T13:22:59.982Z,390
2016-09-28T13:23:59.664Z,385
2016-09-28T13:25:00.327Z,380
2016-09-28T13:26:00.113Z,375
2016-09-28T13:27:00.535Z,370
2016-09-28T13:28:00.746Z,370
2016-09-28T13:29:00.174Z,365
2016-09-28T13:30:00.143Z,360
2016-09-28T13:31:00.567Z,355
2016-09-28T13:31:59.573Z,350
2016-09-28T13:33:00.529Z,345
2016-09-28T13:34:00.275Z,330
2016-09-28T13:35:00.280Z,315
2016-09-28T13:36:00.361Z,295
2016-09-28T13:37:00.790Z,285
2016-09-28T13:38:00.763Z,280
2016-09-28T13:39:00.724Z,280
2016-09-28T13:40:00.691Z,290
2016-09-28T13:41:00.764Z,295
2016-09-28T13:42:00.249Z,290
2016-09-28T13:43:00.876Z,305
2016-09-28T13:44:00.624Z,295
2016-09-28T13:45:00.868Z,300
2016-09-28T13:46:00.725Z,305
2016-09-28T13:47:00.311Z,305
2016-09-28T13:48:00.349Z,320
2016-09-28T13:49:00.992Z,330
2016-09-28T13:50:00.782Z,340
2016-09-28T13:51:01.184Z,335
2016-09-28T13:52:01.076Z,320
2016-09-28T13:53:00.505Z,310
2016-09-28T13:54:01.133Z,295
2016-09-28T13:55:00.927Z,270
2016-09-28T13:56:01.204Z,250
2016-09-28T13:57:00.444Z,230
2016-09-28T13:58:00.921Z,215
2016-09-28T13:59:00.973Z,205
2016-09-28T14:00:01.030Z,200
2016-09-28T14:01:01.410Z,190
2016-09-28T14:02:00.933Z,180
2016-09-28T14:03:01.098Z,165
2016-09-28T14:04:01.105Z,155
2016-09-28T14:05:01.432Z,165
2016-09-28T14:06:00.974Z,165
2016-09-28T14:07:01.194Z,165
2016-09-28T14:08:01.626Z,170
2016-09-28T14:09:01.452Z,155
2016-09-28T14:10:01.569Z,155
2016-09-28T14:11:01.015Z,150